Time;durP1;ratioP1;P1;durP2;ratioP2;P2;SDS_P1;SDS_P2;PMS_P1;PMS_P2;Temp;Humidity;BMP_temperature;BMP_pressure;BME280_temperature;BME280_humidity;BME280_pressure;Samples;Min_cycle;Max_cycle;Signal;HPM_P1;HPM_P2
2020/12/06 00:01:08;;;;;;;31.30;23.40;;;9.10;1.00;;;;;;5054131;28;20172;-56
2020/12/06 00:03:36;;;;;;;27.40;23.17;;;9.10;1.00;;;;;;5053172;28;20192;-56
2020/12/06 00:06:03;;;;;;;32.87;23.93;;;9.20;1.00;;;;;;5054231;28;20194;-57
2020/12/06 00:08:29;;;;;;;31.83;25.47;;;9.20;1.00;;;;;;5053864;28;20553;-56
2020/12/06 00:10:55;;;;;;;37.93;27.53;;;9.30;1.00;;;;;;5053327;28;20521;-55
2020/12/06 00:13:20;;;;;;;32.53;27.27;;;9.00;1.00;;;;;;5053568;28;20627;-56
2020/12/06 00:15:46;;;;;;;31.47;25.67;;;8.70;1.00;;;;;;5053759;28;20195;-58
2020/12/06 00:18:11;;;;;;;33.17;26.90;;;8.50;1.00;;;;;;5053207;28;20282;-55
2020/12/06 00:20:37;;;;;;;33.30;26.60;;;8.30;1.00;;;;;;5053568;28;20207;-58
2020/12/06 00:23:03;;;;;;;37.67;27.53;;;8.10;1.00;;;;;;5053355;28;20229;-56
2020/12/06 00:25:28;;;;;;;35.60;27.40;;;8.00;1.00;;;;;;5052849;28;20188;-58
2020/12/06 00:27:54;;;;;;;32.53;26.77;;;8.00;1.00;;;;;;5053554;28;20180;-58
2020/12/06 00:30:19;;;;;;;35.00;27.17;;;7.90;1.00;;;;;;5053088;28;20195;-56
2020/12/06 00:32:45;;;;;;;34.97;27.40;;;7.90;1.00;;;;;;5052318;28;20301;-58
2020/12/06 00:35:11;;;;;;;40.70;29.23;;;8.00;1.00;;;;;;5053295;28;20172;-55
2020/12/06 00:37:39;;;;;;;38.13;27.63;;;7.90;1.00;;;;;;5069056;28;20556;-58
2020/12/06 00:40:06;;;;;;;35.67;27.23;;;8.00;1.00;;;;;;5053088;28;20196;-58
2020/12/06 00:42:32;;;;;;;34.00;25.10;;;8.00;1.00;;;;;;5052768;28;20896;-63
2020/12/06 00:44:58;;;;;;;34.93;26.67;;;8.00;1.00;;;;;;5054973;28;20484;-59
2020/12/06 00:47:23;;;;;;;36.50;26.03;;;8.00;1.00;;;;;;5056210;28;20255;-56
2020/12/06 00:49:49;;;;;;;34.97;26.33;;;8.20;1.00;;;;;;5072951;28;20208;-56
2020/12/06 00:52:15;;;;;;;35.20;26.23;;;8.20;1.00;;;;;;5056934;28;20222;-56
2020/12/06 00:54:40;;;;;;;32.97;26.30;;;8.20;1.00;;;;;;5056982;28;20513;-58
2020/12/06 00:57:06;;;;;;;37.10;25.50;;;8.10;1.00;;;;;;5056988;28;20180;-58
2020/12/06 00:59:32;;;;;;;30.83;25.37;;;8.10;1.00;;;;;;5056471;28;20622;-58
2020/12/06 01:01:57;;;;;;;29.83;24.50;;;8.00;1.00;;;;;;5056131;28;20507;-55
2020/12/06 01:04:23;;;;;;;33.23;26.97;;;8.00;1.00;;;;;;5056124;28;20434;-55
2020/12/06 01:06:49;;;;;;;33.97;26.70;;;8.00;1.00;;;;;;5072560;28;20602;-58
2020/12/06 01:09:14;;;;;;;32.97;25.03;;;8.00;1.00;;;;;;5056460;28;20241;-56
2020/12/06 01:11:40;;;;;;;35.77;26.90;;;7.90;1.00;;;;;;5056033;28;20184;-56
2020/12/06 01:14:06;;;;;;;34.10;27.00;;;7.90;1.00;;;;;;5056785;28;20215;-58
2020/12/06 01:16:31;;;;;;;35.50;26.20;;;8.00;1.00;;;;;;5056507;28;20196;-58
2020/12/06 01:18:57;;;;;;;35.03;27.00;;;8.00;1.00;;;;;;5067273;28;20441;-55
2020/12/06 01:21:22;;;;;;;33.00;24.70;;;7.90;1.00;;;;;;5055608;28;20265;-56
2020/12/06 01:23:48;;;;;;;33.00;26.33;;;7.90;1.00;;;;;;5055911;28;20184;-59
2020/12/06 01:26:14;;;;;;;36.53;26.47;;;7.90;1.00;;;;;;5056554;28;20191;-58
2020/12/06 01:28:40;;;;;;;30.60;24.73;;;8.00;1.00;;;;;;5056302;28;20537;-58
2020/12/06 01:31:06;;;;;;;32.87;25.93;;;8.00;1.00;;;;;;5056154;28;20207;-56
2020/12/06 01:33:32;;;;;;;36.43;26.53;;;8.00;1.00;;;;;;5056119;28;20175;-59
2020/12/06 01:35:58;;;;;;;31.23;25.07;;;7.90;1.00;;;;;;5055770;28;20749;-56
2020/12/06 01:38:23;;;;;;;32.23;25.30;;;7.90;1.00;;;;;;5055266;28;20202;-58
2020/12/06 01:40:49;;;;;;;35.73;26.53;;;7.80;1.00;;;;;;5056247;28;20184;-57
2020/12/06 01:43:15;;;;;;;34.60;25.97;;;7.80;1.00;;;;;;5055133;28;20196;-58
2020/12/06 01:45:40;;;;;;;35.50;26.80;;;7.80;1.00;;;;;;5056000;28;20274;-56
2020/12/06 01:48:07;;;;;;;36.37;27.20;;;7.90;1.00;;;;;;5055348;28;20645;-58
2020/12/06 01:50:39;;;;;;;34.07;24.20;;;8.20;1.00;;;;;;5056041;28;20177;-56
2020/12/06 01:53:06;;;;;;;34.40;24.97;;;8.00;1.00;;;;;;5055907;28;20488;-58
2020/12/06 01:55:32;;;;;;;30.67;24.90;;;7.90;1.00;;;;;;5054208;28;20756;-59
2020/12/06 01:58:08;;;;;;;33.23;24.60;;;7.80;1.00;;;;;;5055852;28;20488;-56
2020/12/06 02:00:37;;;;;;;29.77;23.80;;;7.80;1.00;;;;;;5055924;28;20907;-58
2020/12/06 02:03:04;;;;;;;32.03;25.43;;;7.70;1.00;;;;;;5055522;28;20463;-58
2020/12/06 02:05:31;;;;;;;32.80;25.53;;;7.70;1.00;;;;;;5054937;28;20449;-55
2020/12/06 02:08:00;;;;;;;33.10;26.50;;;7.80;1.00;;;;;;5055543;28;20491;-55
2020/12/06 02:10:27;;;;;;;29.20;24.00;;;7.90;1.00;;;;;;5055525;28;20454;-55
2020/12/06 02:12:54;;;;;;;30.80;25.07;;;7.90;1.00;;;;;;5055463;28;20430;-57
2020/12/06 02:15:20;;;;;;;24.33;20.27;;;7.90;1.00;;;;;;5055450;28;20513;-58
2020/12/06 02:17:46;;;;;;;29.77;22.37;;;7.90;1.00;;;;;;5054830;28;20509;-58
2020/12/06 02:20:11;;;;;;;24.80;20.87;;;8.00;1.00;;;;;;5054888;28;20439;-55
2020/12/06 02:22:37;;;;;;;27.87;21.97;;;8.00;1.00;;;;;;5054921;28;20191;-55
2020/12/06 02:25:04;;;;;;;25.77;20.00;;;8.00;1.00;;;;;;5055236;28;20219;-55
2020/12/06 02:27:30;;;;;;;24.70;20.03;;;8.00;1.00;;;;;;5054467;28;20184;-56
2020/12/06 02:29:55;;;;;;;25.20;20.30;;;8.10;1.00;;;;;;5055206;28;20466;-56
2020/12/06 02:32:21;;;;;;;27.43;21.60;;;8.10;1.00;;;;;;5055254;28;20438;-56
2020/12/06 02:34:47;;;;;;;24.40;19.60;;;8.10;1.00;;;;;;5054658;28;20215;-55
2020/12/06 02:37:13;;;;;;;25.53;19.87;;;8.10;1.00;;;;;;5070200;28;20625;-59
2020/12/06 02:39:39;;;;;;;23.77;20.07;;;8.20;1.00;;;;;;5055155;28;20184;-56
2020/12/06 02:42:04;;;;;;;25.50;21.77;;;8.20;1.00;;;;;;5054896;28;20484;-58
2020/12/06 02:44:30;;;;;;;23.10;19.20;;;8.30;1.00;;;;;;5054777;28;20180;-58
2020/12/06 02:46:56;;;;;;;24.90;20.93;;;8.30;1.00;;;;;;5055143;28;20554;-59
2020/12/06 02:49:21;;;;;;;28.13;21.27;;;8.20;1.00;;;;;;5054400;28;20212;-60
2020/12/06 02:51:47;;;;;;;23.17;20.33;;;8.20;1.00;;;;;;5054905;28;20256;-58
2020/12/06 02:54:12;;;;;;;25.00;20.47;;;8.20;1.00;;;;;;5070367;28;20517;-59
2020/12/06 02:56:38;;;;;;;22.30;19.60;;;8.20;1.00;;;;;;5054807;28;20203;-58
2020/12/06 02:59:04;;;;;;;26.30;20.30;;;8.10;1.00;;;;;;5054374;28;20181;-59
2020/12/06 03:01:31;;;;;;;25.47;20.77;;;8.10;1.00;;;;;;5054172;28;20268;-56
2020/12/06 03:03:57;;;;;;;25.63;17.77;;;8.20;1.00;;;;;;5054369;28;20203;-57
2020/12/06 03:06:23;;;;;;;28.40;19.03;;;8.10;1.00;;;;;;5053718;28;20446;-56
2020/12/06 03:08:48;;;;;;;21.83;18.30;;;8.20;1.00;;;;;;5053371;28;20462;-56
2020/12/06 03:11:14;;;;;;;25.57;17.87;;;8.30;1.00;;;;;;5054566;28;20234;-60
2020/12/06 03:13:39;;;;;;;24.57;18.47;;;8.40;1.00;;;;;;5054213;28;20640;-58
2020/12/06 03:16:05;;;;;;;22.10;17.80;;;8.40;1.00;;;;;;5054189;28;20173;-56
2020/12/06 03:18:31;;;;;;;18.90;15.93;;;8.50;1.00;;;;;;5053692;28;20241;-58
2020/12/06 03:20:57;;;;;;;17.90;16.00;;;8.60;1.00;;;;;;5053669;28;20435;-56
2020/12/06 03:23:23;;;;;;;16.67;14.97;;;8.70;1.00;;;;;;5053227;28;20445;-56
2020/12/06 03:25:49;;;;;;;17.93;16.03;;;8.90;1.00;;;;;;5053834;28;20521;-56
2020/12/06 03:28:14;;;;;;;18.33;14.27;;;8.90;1.00;;;;;;5052938;28;20829;-58
2020/12/06 03:30:40;;;;;;;15.97;14.27;;;9.00;1.00;;;;;;5053943;28;20306;-56
2020/12/06 03:33:06;;;;;;;17.90;14.30;;;9.10;1.00;;;;;;5053530;28;20180;-56
2020/12/06 03:35:31;;;;;;;21.27;15.57;;;9.20;1.00;;;;;;5054058;28;20482;-56
2020/12/06 03:37:57;;;;;;;17.40;14.70;;;9.20;1.00;;;;;;5053454;28;20178;-56
2020/12/06 03:40:23;;;;;;;20.47;15.40;;;9.30;1.00;;;;;;5053800;28;20560;-56
2020/12/06 03:42:53;;;;;;;16.10;13.50;;;9.40;1.00;;;;;;5053572;28;20918;-56
2020/12/06 03:45:19;;;;;;;19.87;14.60;;;9.40;1.00;;;;;;5051245;28;20247;-58
2020/12/06 03:47:45;;;;;;;17.20;14.10;;;9.50;1.00;;;;;;5053767;28;20430;-58
2020/12/06 03:50:11;;;;;;;15.63;13.83;;;9.60;1.00;;;;;;5053502;28;20458;-58
2020/12/06 03:52:37;;;;;;;14.57;12.97;;;9.60;1.00;;;;;;5052787;28;20505;-56
2020/12/06 03:55:03;;;;;;;17.03;14.10;;;9.70;1.00;;;;;;5053752;28;20172;-58
2020/12/06 03:57:29;;;;;;;19.63;14.70;;;9.70;1.00;;;;;;5052991;28;20234;-60
2020/12/06 03:59:54;;;;;;;16.17;13.73;;;9.70;1.00;;;;;;5053414;28;20454;-57
2020/12/06 04:02:20;;;;;;;14.47;12.93;;;9.70;1.00;;;;;;5053687;28;20301;-56
2020/12/06 04:04:45;;;;;;;20.57;14.50;;;9.80;1.00;;;;;;5069161;28;20177;-59
2020/12/06 04:07:11;;;;;;;15.93;14.27;;;9.80;1.00;;;;;;5052992;28;20186;-59
2020/12/06 04:09:37;;;;;;;16.57;14.00;;;9.80;1.00;;;;;;5053243;28;20591;-58
2020/12/06 04:12:02;;;;;;;14.33;12.83;;;9.90;1.00;;;;;;5069061;28;20178;-56
2020/12/06 04:14:28;;;;;;;16.30;13.93;;;9.90;1.00;;;;;;5053291;28;20180;-57
2020/12/06 04:16:54;;;;;;;15.83;13.20;;;10.00;1.00;;;;;;5053150;28;20172;-59
2020/12/06 04:19:19;;;;;;;18.70;13.80;;;10.00;1.00;;;;;;5052875;28;20212;-56
2020/12/06 04:21:45;;;;;;;19.03;13.57;;;10.10;1.00;;;;;;5052939;28;20191;-56
2020/12/06 04:24:13;;;;;;;18.93;14.90;;;10.10;1.00;;;;;;5052940;28;20210;-58
2020/12/06 04:26:39;;;;;;;16.87;13.57;;;10.10;1.00;;;;;;5052946;28;20180;-56
2020/12/06 04:29:05;;;;;;;17.47;13.67;;;10.20;1.00;;;;;;5053200;28;20461;-58
2020/12/06 04:31:31;;;;;;;16.33;14.33;;;10.20;1.00;;;;;;5053286;28;20431;-56
2020/12/06 04:33:57;;;;;;;16.03;13.27;;;10.20;1.00;;;;;;5052896;28;20559;-57
2020/12/06 04:36:22;;;;;;;18.60;14.37;;;10.10;1.00;;;;;;5053200;28;20426;-59
2020/12/06 04:38:48;;;;;;;16.90;14.10;;;10.20;1.00;;;;;;5052905;28;20208;-58
2020/12/06 04:41:13;;;;;;;16.37;13.23;;;10.20;1.00;;;;;;5053045;28;20242;-59
2020/12/06 04:43:40;;;;;;;15.87;14.27;;;10.10;1.00;;;;;;5052659;28;20184;-56
2020/12/06 04:46:06;;;;;;;17.93;14.53;;;9.90;1.00;;;;;;5052850;28;20557;-56
2020/12/06 04:49:24;;;;;;;19.20;14.53;;;10.20;1.00;;;;;;5052654;28;20462;-57
2020/12/06 04:51:54;;;;;;;16.60;13.87;;;10.20;1.00;;;;;;5027825;28;20526;-58
2020/12/06 04:54:26;;;;;;;15.80;13.90;;;10.20;1.00;;;;;;5031334;28;20442;-56
2020/12/06 04:56:59;;;;;;;17.57;14.50;;;10.10;1.00;;;;;;5036823;28;20850;-56
2020/12/06 04:59:27;;;;;;;16.60;14.07;;;10.20;1.00;;;;;;5052754;28;20458;-56
2020/12/06 05:01:56;;;;;;;17.33;15.47;;;10.20;1.00;;;;;;5052730;28;20469;-57
2020/12/06 05:04:25;;;;;;;16.27;14.10;;;10.20;1.00;;;;;;5045365;28;20430;-59
2020/12/06 05:06:54;;;;;;;18.30;15.73;;;10.10;1.00;;;;;;5052961;28;20437;-58
2020/12/06 05:09:22;;;;;;;18.40;14.70;;;10.20;1.00;;;;;;5051766;28;20456;-57
2020/12/06 05:11:47;;;;;;;18.70;15.30;;;10.20;1.00;;;;;;5053033;28;20433;-58
2020/12/06 05:14:13;;;;;;;17.80;14.93;;;10.20;1.00;;;;;;5052688;28;20519;-56
2020/12/06 05:16:40;;;;;;;17.10;14.17;;;10.20;1.00;;;;;;5052111;28;20207;-56
2020/12/06 05:19:09;;;;;;;17.80;14.50;;;10.20;1.00;;;;;;5052299;28;20186;-57
2020/12/06 05:21:37;;;;;;;15.00;13.40;;;10.30;1.00;;;;;;5052462;28;20907;-57
2020/12/06 05:24:03;;;;;;;18.30;15.27;;;10.20;1.00;;;;;;5051238;28;20875;-58
2020/12/06 05:26:29;;;;;;;20.53;15.87;;;10.20;1.00;;;;;;5051800;28;20514;-56
2020/12/06 05:28:55;;;;;;;19.23;15.00;;;10.20;1.00;;;;;;5052778;28;20203;-56
2020/12/06 05:31:22;;;;;;;20.67;15.57;;;10.20;1.00;;;;;;5054688;28;20430;-56
2020/12/06 05:33:49;;;;;;;19.50;14.50;;;10.20;1.00;;;;;;5055993;28;20498;-55
2020/12/06 05:36:15;;;;;;;17.07;14.47;;;10.20;1.00;;;;;;5056115;28;20429;-56
2020/12/06 05:38:41;;;;;;;17.27;15.30;;;10.30;1.00;;;;;;5056309;28;20435;-58
2020/12/06 05:41:09;;;;;;;19.67;15.07;;;10.30;1.00;;;;;;5056073;28;20907;-56
2020/12/06 05:43:36;;;;;;;19.77;15.53;;;10.30;1.00;;;;;;5055974;28;20193;-59
2020/12/06 05:46:08;;;;;;;15.93;14.20;;;10.30;1.00;;;;;;5053897;28;20577;-58
2020/12/06 05:48:34;;;;;;;19.10;14.83;;;10.30;1.00;;;;;;5054997;28;20511;-58
2020/12/06 05:51:01;;;;;;;17.43;14.57;;;10.30;1.00;;;;;;5056040;28;20919;-56
2020/12/06 05:53:27;;;;;;;21.00;16.80;;;10.40;1.00;;;;;;5055914;28;20764;-58
2020/12/06 05:56:18;;;;;;;18.70;15.50;;;10.40;1.00;;;;;;5056358;28;20434;-57
2020/12/06 05:58:48;;;;;;;19.40;15.43;;;10.30;1.00;;;;;;5071329;28;20519;-58
2020/12/06 06:01:16;;;;;;;17.10;14.27;;;10.30;1.00;;;;;;5055704;28;20427;-55
2020/12/06 06:03:52;;;;;;;20.20;16.13;;;10.30;1.00;;;;;;5055519;28;20460;-55
2020/12/06 06:06:25;;;;;;;17.60;15.70;;;10.30;1.00;;;;;;5055141;28;20422;-56
2020/12/06 06:08:53;;;;;;;20.70;15.80;;;10.30;1.00;;;;;;5047411;28;20454;-57
2020/12/06 06:11:30;;;;;;;16.40;14.67;;;10.30;1.00;;;;;;5055808;28;20426;-57
2020/12/06 06:14:04;;;;;;;20.87;16.23;;;10.30;1.00;;;;;;5055835;28;20449;-55
2020/12/06 06:16:32;;;;;;;17.73;14.50;;;10.30;1.00;;;;;;5055458;28;20524;-57
2020/12/06 06:19:03;;;;;;;18.90;15.07;;;10.30;1.00;;;;;;5048249;28;20435;-58
2020/12/06 06:21:32;;;;;;;20.83;16.67;;;10.40;1.00;;;;;;5055449;28;20934;-56
2020/12/06 06:24:05;;;;;;;17.80;15.33;;;10.40;1.00;;;;;;5054727;28;20438;-57
2020/12/06 06:26:34;;;;;;;23.53;16.80;;;10.40;1.00;;;;;;5055346;28;20505;-56
2020/12/06 06:29:00;;;;;;;16.63;14.83;;;10.40;1.00;;;;;;5055082;28;20508;-58
2020/12/06 06:31:30;;;;;;;20.53;16.93;;;10.40;1.00;;;;;;5055088;28;20787;-56
2020/12/06 06:33:56;;;;;;;19.23;15.80;;;10.40;1.00;;;;;;5054829;28;20650;-59
2020/12/06 06:36:22;;;;;;;23.53;17.47;;;10.30;1.00;;;;;;5055322;28;20437;-59
2020/12/06 06:38:50;;;;;;;18.47;14.23;;;10.30;1.00;;;;;;5055068;28;20177;-56
2020/12/06 06:41:16;;;;;;;17.90;13.50;;;10.40;1.00;;;;;;5055049;28;20435;-56
2020/12/06 06:43:43;;;;;;;17.40;15.60;;;10.40;1.00;;;;;;5054409;28;20434;-58
2020/12/06 06:46:17;;;;;;;19.90;14.63;;;10.30;1.00;;;;;;5054478;28;20493;-58
2020/12/06 06:48:50;;;;;;;16.83;14.70;;;10.40;1.00;;;;;;5054938;28;20456;-57
2020/12/06 06:51:21;;;;;;;16.83;14.87;;;10.40;1.00;;;;;;5051780;28;20457;-56
2020/12/06 06:53:48;;;;;;;16.83;15.03;;;10.40;1.00;;;;;;5054297;28;20493;-58
2020/12/06 06:56:21;;;;;;;19.47;15.30;;;10.40;1.00;;;;;;5054878;28;20463;-57
2020/12/06 06:58:48;;;;;;;16.93;15.07;;;10.40;1.00;;;;;;5054724;28;20514;-56
2020/12/06 07:01:21;;;;;;;19.27;14.50;;;10.40;1.00;;;;;;5053797;28;20426;-58
2020/12/06 07:03:54;;;;;;;17.57;14.57;;;10.40;1.00;;;;;;5054427;28;20436;-58
2020/12/06 07:06:42;;;;;;;20.10;15.83;;;10.50;1.00;;;;;;5053426;28;20456;-58
2020/12/06 07:09:07;;;;;;;20.60;15.57;;;9.50;1.00;;;;;;5070141;28;20460;-55
2020/12/06 07:11:33;;;;;;;19.40;15.10;;;10.60;1.00;;;;;;5053994;28;20434;-59
2020/12/06 07:14:01;;;;;;;15.97;14.27;;;10.70;1.00;;;;;;5069632;28;20238;-58
2020/12/06 07:16:26;;;;;;;19.60;14.20;;;10.70;1.00;;;;;;5053015;28;20424;-56
2020/12/06 07:18:52;;;;;;;17.67;15.77;;;10.70;1.00;;;;;;5054654;28;20753;-59
2020/12/06 07:21:18;;;;;;;16.63;14.80;;;10.70;1.00;;;;;;5052481;28;20211;-57
2020/12/06 07:23:43;;;;;;;19.80;14.77;;;10.70;1.00;;;;;;5054016;28;20172;-58
2020/12/06 07:26:09;;;;;;;17.77;14.60;;;10.70;1.00;;;;;;5054303;28;20181;-58
2020/12/06 07:28:35;;;;;;;19.30;15.20;;;10.60;1.00;;;;;;5053741;28;20212;-57
2020/12/06 07:31:01;;;;;;;19.10;16.43;;;10.60;1.00;;;;;;5054163;28;20757;-59
2020/12/06 07:33:26;;;;;;;17.90;15.00;;;10.50;1.00;;;;;;5052941;28;20177;-56
2020/12/06 07:35:52;;;;;;;17.47;14.50;;;10.40;1.00;;;;;;5053990;28;20248;-58
2020/12/06 07:38:18;;;;;;;17.80;14.20;;;10.40;1.00;;;;;;5069351;28;20512;-56
2020/12/06 07:40:43;;;;;;;26.60;14.30;;;10.50;1.00;;;;;;5062125;28;20182;-55
2020/12/06 07:43:13;;;;;;;17.37;14.97;;;10.50;1.00;;;;;;5069477;28;20187;-56
2020/12/06 07:45:39;;;;;;;17.53;14.20;;;10.50;1.00;;;;;;5053298;28;20601;-56
2020/12/06 07:48:05;;;;;;;16.33;14.60;;;10.60;1.00;;;;;;5053931;28;20807;-58
2020/12/06 07:50:31;;;;;;;16.77;14.53;;;10.60;1.00;;;;;;5052400;28;20468;-58
2020/12/06 07:53:03;;;;;;;16.37;14.03;;;10.60;1.00;;;;;;5053284;28;20177;-58
2020/12/06 07:55:29;;;;;;;16.57;12.80;;;10.60;1.00;;;;;;5053535;28;20185;-59
2020/12/06 07:57:57;;;;;;;20.27;15.77;;;10.70;1.00;;;;;;5053575;28;20879;-58
2020/12/06 08:00:29;;;;;;;15.33;12.83;;;10.80;1.00;;;;;;5052681;28;20434;-57
2020/12/06 08:02:57;;;;;;;18.10;15.30;;;10.90;1.00;;;;;;5052133;28;20434;-60
2020/12/06 08:05:29;;;;;;;16.00;13.50;;;11.00;1.00;;;;;;5052700;28;20522;-60
2020/12/06 08:08:01;;;;;;;16.03;14.43;;;11.00;1.00;;;;;;5053589;28;20450;-59
2020/12/06 08:10:28;;;;;;;17.43;14.73;;;11.00;1.00;;;;;;5053518;28;20452;-60
2020/12/06 08:12:55;;;;;;;19.00;14.47;;;11.00;1.00;;;;;;5052973;28;20434;-55
2020/12/06 08:15:25;;;;;;;16.60;14.00;;;11.10;1.00;;;;;;5053498;28;20427;-59
2020/12/06 08:17:52;;;;;;;16.33;13.90;;;11.10;1.00;;;;;;5053666;28;20426;-55
2020/12/06 08:20:20;;;;;;;15.67;13.97;;;11.20;1.00;;;;;;5052542;28;20430;-55
2020/12/06 08:22:57;;;;;;;17.00;14.33;;;11.20;1.00;;;;;;5052362;28;20431;-58
2020/12/06 08:25:26;;;;;;;17.97;14.20;;;11.20;1.00;;;;;;5053304;28;20515;-55
2020/12/06 08:27:53;;;;;;;17.43;14.57;;;11.30;1.00;;;;;;5050394;28;20432;-56
2020/12/06 08:30:21;;;;;;;15.27;13.53;;;11.30;1.00;;;;;;5053286;28;20479;-58
2020/12/06 08:33:01;;;;;;;15.90;12.47;;;11.30;1.00;;;;;;5053231;28;20419;-58
2020/12/06 08:35:47;;;;;;;16.37;14.07;;;11.30;1.00;;;;;;5046456;28;20438;-59
2020/12/06 08:38:24;;;;;;;14.90;13.27;;;11.30;1.00;;;;;;5052855;28;21171;-59
2020/12/06 08:41:01;;;;;;;14.53;13.00;;;11.30;1.00;;;;;;5049894;28;20509;-56
2020/12/06 08:44:01;;;;;;;16.53;14.40;;;11.30;1.00;;;;;;5053271;28;20433;-59
2020/12/06 08:46:28;;;;;;;16.10;13.47;;;11.30;1.00;;;;;;5045914;28;20654;-60
2020/12/06 08:48:55;;;;;;;15.67;13.87;;;11.40;1.00;;;;;;5053211;28;20460;-61
2020/12/06 08:51:37;;;;;;;16.17;14.50;;;11.40;1.00;;;;;;5053165;28;20458;-58
2020/12/06 08:54:07;;;;;;;15.57;13.63;;;11.40;1.00;;;;;;5052504;28;20439;-59
2020/12/06 08:56:40;;;;;;;15.90;14.20;;;11.50;1.00;;;;;;5053212;28;20524;-61
2020/12/06 08:59:08;;;;;;;16.83;13.60;;;11.50;1.00;;;;;;5053116;28;20733;-59
2020/12/06 09:01:49;;;;;;;14.20;12.37;;;11.60;1.00;;;;;;5045746;28;20433;-58
2020/12/06 09:04:15;;;;;;;15.93;14.00;;;11.60;1.00;;;;;;5052661;28;20725;-57
2020/12/06 09:06:41;;;;;;;18.77;14.37;;;11.60;1.00;;;;;;5072160;28;20854;-60
2020/12/06 09:09:07;;;;;;;15.70;13.13;;;11.60;1.00;;;;;;5071247;28;20551;-59
2020/12/06 09:11:32;;;;;;;15.50;13.73;;;11.70;1.00;;;;;;5056613;28;20273;-58
2020/12/06 09:13:58;;;;;;;15.33;13.33;;;11.60;1.00;;;;;;5056796;28;20514;-59
2020/12/06 09:16:24;;;;;;;15.77;12.13;;;11.60;1.00;;;;;;5056421;28;20240;-56
2020/12/06 09:18:49;;;;;;;14.53;13.00;;;11.70;1.00;;;;;;5056902;28;20502;-59
2020/12/06 09:21:15;;;;;;;15.60;12.73;;;11.80;1.00;;;;;;5056480;28;20185;-58
2020/12/06 09:23:41;;;;;;;17.33;13.63;;;11.80;1.00;;;;;;5048815;28;20268;-57
2020/12/06 09:26:07;;;;;;;15.07;13.30;;;11.90;1.00;;;;;;5056162;28;20624;-56
2020/12/06 09:28:33;;;;;;;14.50;13.00;;;11.90;1.00;;;;;;5056549;28;20288;-57
2020/12/06 09:31:00;;;;;;;16.67;13.90;;;12.00;1.00;;;;;;5056480;28;20180;-60
2020/12/06 09:33:26;;;;;;;14.33;12.30;;;12.10;1.00;;;;;;5056487;28;20432;-59
2020/12/06 09:35:52;;;;;;;16.53;13.73;;;12.10;1.00;;;;;;5056167;28;20426;-57
2020/12/06 09:38:18;;;;;;;13.00;11.57;;;12.20;1.00;;;;;;5053043;28;20186;-56
2020/12/06 09:40:44;;;;;;;14.20;12.40;;;12.30;1.00;;;;;;5056100;28;20498;-58
2020/12/06 09:43:10;;;;;;;16.40;11.80;;;12.30;1.00;;;;;;5056763;28;20174;-56
2020/12/06 09:45:36;;;;;;;14.50;12.90;;;12.40;1.00;;;;;;5055988;28;20773;-60
2020/12/06 09:48:03;;;;;;;17.33;12.70;;;12.40;1.00;;;;;;5055613;28;20430;-59
2020/12/06 09:50:29;;;;;;;15.63;13.97;;;12.50;1.00;;;;;;5055526;28;20484;-55
2020/12/06 09:52:55;;;;;;;13.50;11.70;;;12.60;1.00;;;;;;5056311;28;20485;-56
2020/12/06 09:55:20;;;;;;;14.37;12.80;;;12.70;1.00;;;;;;5055726;28;20167;-57
2020/12/06 09:57:46;;;;;;;13.37;11.90;;;12.90;1.00;;;;;;5055490;28;20176;-60
2020/12/06 10:00:12;;;;;;;15.87;11.90;;;13.10;1.00;;;;;;5051012;28;20240;-56
2020/12/06 10:02:38;;;;;;;14.40;12.57;;;13.20;1.00;;;;;;5050956;28;20248;-56
2020/12/06 10:05:04;;;;;;;15.57;13.27;;;13.20;1.00;;;;;;5055312;28;20433;-60
2020/12/06 10:07:29;;;;;;;18.20;13.23;;;13.30;1.00;;;;;;5071477;28;20187;-57
2020/12/06 10:09:55;;;;;;;13.50;12.17;;;13.20;1.00;;;;;;5054684;28;20537;-57
2020/12/06 10:12:21;;;;;;;13.60;12.23;;;13.20;1.00;;;;;;5071133;28;20172;-60
2020/12/06 10:14:46;;;;;;;14.33;12.83;;;13.20;1.00;;;;;;5054287;28;20198;-56
2020/12/06 10:17:12;;;;;;;11.50;10.40;;;13.20;1.00;;;;;;5055482;28;20179;-59
2020/12/06 10:19:38;;;;;;;12.83;11.30;;;13.30;1.00;;;;;;5056298;28;20668;-59
2020/12/06 10:22:04;;;;;;;13.03;11.73;;;13.30;1.00;;;;;;5056391;28;20479;-59
2020/12/06 10:24:30;;;;;;;12.57;10.83;;;13.40;1.00;;;;;;5055759;28;20488;-57
2020/12/06 10:26:56;;;;;;;13.37;10.50;;;13.30;1.00;;;;;;5071478;28;20460;-60
2020/12/06 10:29:22;;;;;;;14.77;12.10;;;13.40;1.00;;;;;;5055549;28;20201;-60
2020/12/06 10:31:49;;;;;;;13.97;10.33;;;13.40;1.00;;;;;;5055597;28;20446;-55
2020/12/06 10:34:15;;;;;;;14.07;11.13;;;13.50;1.00;;;;;;5071257;28;20432;-60
2020/12/06 10:36:41;;;;;;;11.10;9.87;;;13.50;1.00;;;;;;5055660;28;20883;-56
2020/12/06 10:39:07;;;;;;;12.00;10.60;;;13.60;1.00;;;;;;5055211;28;20191;-56
2020/12/06 10:41:32;;;;;;;11.17;9.90;;;13.90;1.00;;;;;;5055186;28;20521;-60
2020/12/06 10:43:58;;;;;;;12.13;10.90;;;13.90;1.00;;;;;;5055480;28;20179;-56
2020/12/06 10:46:27;;;;;;;11.80;10.60;;;13.90;1.00;;;;;;5055139;28;20223;-56
2020/12/06 10:48:53;;;;;;;11.93;10.63;;;14.00;1.00;;;;;;5055004;28;20537;-56
2020/12/06 10:51:19;;;;;;;12.10;10.00;;;14.00;1.00;;;;;;5055147;28;20776;-57
2020/12/06 10:53:45;;;;;;;13.07;10.90;;;14.10;1.00;;;;;;5054916;28;20512;-59
2020/12/06 10:56:10;;;;;;;13.27;10.40;;;14.00;1.00;;;;;;5054665;28;20628;-55
2020/12/06 10:58:36;;;;;;;22.37;10.57;;;14.00;1.00;;;;;;5055005;28;20181;-60
2020/12/06 11:01:03;;;;;;;13.80;11.03;;;13.90;1.00;;;;;;5055125;28;20288;-58
2020/12/06 11:03:28;;;;;;;15.70;11.70;;;13.80;1.00;;;;;;5054950;28;20441;-60
2020/12/06 11:05:54;;;;;;;11.87;9.63;;;13.70;1.00;;;;;;5054256;28;20870;-60
2020/12/06 11:08:21;;;;;;;11.50;10.30;;;13.70;1.00;;;;;;5053891;28;20190;-56
2020/12/06 11:10:47;;;;;;;11.47;10.00;;;13.80;1.00;;;;;;5068965;28;20187;-56
2020/12/06 11:13:12;;;;;;;11.07;9.97;;;13.70;1.00;;;;;;5055239;28;20767;-59
2020/12/06 11:15:38;;;;;;;13.10;10.50;;;13.60;1.00;;;;;;5070878;28;20517;-60
2020/12/06 11:18:04;;;;;;;11.60;10.43;;;13.60;1.00;;;;;;5055340;28;20226;-57
2020/12/06 11:20:29;;;;;;;11.33;10.13;;;13.60;1.00;;;;;;5053930;28;20684;-57
2020/12/06 11:22:55;;;;;;;12.13;10.30;;;13.70;1.00;;;;;;5055017;28;20167;-57
2020/12/06 11:25:20;;;;;;;11.97;9.90;;;13.70;1.00;;;;;;5054717;28;20191;-56
2020/12/06 11:27:46;;;;;;;11.50;10.30;;;13.80;1.00;;;;;;5052050;28;20206;-60
2020/12/06 11:30:12;;;;;;;13.20;11.70;;;13.90;1.00;;;;;;5052231;28;20511;-55
2020/12/06 11:32:37;;;;;;;11.40;10.30;;;14.10;1.00;;;;;;5054409;28;20529;-57
2020/12/06 11:35:03;;;;;;;12.83;11.17;;;14.00;1.00;;;;;;5054169;28;20237;-57
2020/12/06 11:37:29;;;;;;;13.17;11.23;;;14.00;1.00;;;;;;5053238;28;20190;-61
2020/12/06 11:39:54;;;;;;;11.60;10.40;;;13.90;1.00;;;;;;5054143;28;20210;-59
2020/12/06 11:42:20;;;;;;;10.70;9.60;;;13.90;1.00;;;;;;5054305;28;20534;-56
2020/12/06 11:44:45;;;;;;;11.97;10.33;;;13.90;1.00;;;;;;5069434;28;20280;-56
2020/12/06 11:47:11;;;;;;;15.70;12.50;;;13.80;1.00;;;;;;5054243;28;20184;-55
2020/12/06 11:49:36;;;;;;;13.80;11.30;;;13.70;1.00;;;;;;5054040;28;20246;-56
2020/12/06 11:52:07;;;;;;;11.37;10.33;;;13.60;1.00;;;;;;5053967;28;20204;-56
2020/12/06 11:54:33;;;;;;;12.27;11.07;;;13.60;1.00;;;;;;5069860;28;20620;-57
2020/12/06 11:56:59;;;;;;;20.50;11.80;;;13.60;1.00;;;;;;5052661;28;20437;-57
2020/12/06 11:59:24;;;;;;;17.10;12.07;;;13.70;1.00;;;;;;5070075;28;20481;-59
2020/12/06 12:01:52;;;;;;;13.30;11.00;;;13.60;1.00;;;;;;5053662;28;20206;-59
2020/12/06 12:04:17;;;;;;;15.07;11.00;;;13.60;1.00;;;;;;5053915;28;20183;-60
2020/12/06 12:06:43;;;;;;;13.20;10.80;;;13.50;1.00;;;;;;5053604;28;20932;-59
2020/12/06 12:09:09;;;;;;;13.20;10.73;;;13.50;1.00;;;;;;5053771;28;20203;-57
2020/12/06 12:11:34;;;;;;;15.33;10.60;;;13.50;1.00;;;;;;5069382;28;20233;-56
2020/12/06 12:14:00;;;;;;;12.40;10.83;;;13.50;1.00;;;;;;5053780;28;20189;-56
2020/12/06 12:16:25;;;;;;;10.43;9.43;;;13.60;1.00;;;;;;5053787;28;20262;-62
2020/12/06 12:18:51;;;;;;;13.50;10.80;;;13.60;1.00;;;;;;5053584;28;20182;-60
2020/12/06 12:21:17;;;;;;;11.87;10.37;;;13.50;1.00;;;;;;5052943;28;20183;-56
2020/12/06 12:23:42;;;;;;;11.50;10.30;;;13.40;1.00;;;;;;5053530;28;20261;-58
2020/12/06 12:26:08;;;;;;;10.77;9.67;;;13.40;1.00;;;;;;5053074;28;20187;-60
2020/12/06 12:28:34;;;;;;;15.53;10.17;;;13.30;1.00;;;;;;5050568;28;20214;-57
2020/12/06 12:30:59;;;;;;;18.63;10.93;;;13.30;1.00;;;;;;5045849;28;20901;-56
2020/12/06 12:33:25;;;;;;;14.83;10.37;;;13.40;1.00;;;;;;5051628;28;20206;-62
2020/12/06 12:35:51;;;;;;;15.97;11.97;;;13.30;1.00;;;;;;5069308;28;20185;-57
2020/12/06 12:38:16;;;;;;;14.90;10.00;;;13.30;1.00;;;;;;5053271;28;20179;-57
2020/12/06 12:40:42;;;;;;;11.00;9.30;;;13.30;1.00;;;;;;5056550;28;20181;-56